Time;durP1;ratioP1;P1;durP2;ratioP2;P2;SDS_P1;SDS_P2;PMS_P1;PMS_P2;Temp;Humidity;BMP_temperature;BMP_pressure;BME280_temperature;BME280_humidity;BME280_pressure;Samples;Min_cycle;Max_cycle;Signal;HPM_P1;HPM_P2
2023/08/24 00:01:34;;;;;;;0.03;0.03;;;17.30;99.90;;;;;;5031142;28;20397;-68
2023/08/24 00:04:00;;;;;;;0.30;0.30;;;17.40;99.90;;;;;;5034732;28;20079;-68
2023/08/24 00:06:27;;;;;;;0.10;0.10;;;17.30;99.90;;;;;;5028777;28;20032;-68
2023/08/24 00:08:53;;;;;;;0.20;0.20;;;17.30;99.90;;;;;;5032995;28;20348;-76
2023/08/24 00:11:19;;;;;;;0.10;0.10;;;17.30;99.90;;;;;;5026693;28;20029;-68
2023/08/24 00:13:52;;;;;;;0.08;0.08;;;17.30;99.90;;;;;;5032652;28;20038;-68
2023/08/24 00:16:19;;;;;;;0.00;0.00;;;17.30;99.90;;;;;;5033603;28;20057;-68
2023/08/24 00:18:45;;;;;;;0.10;0.10;;;17.30;99.90;;;;;;5032984;28;20369;-68
2023/08/24 00:21:12;;;;;;;0.40;0.40;;;17.30;99.90;;;;;;5034553;28;20164;-68
2023/08/24 00:23:38;;;;;;;0.00;0.00;;;17.30;99.90;;;;;;5025334;28;20306;-68
2023/08/24 00:26:04;;;;;;;0.00;0.00;;;17.30;99.90;;;;;;5033963;28;20132;-68
2023/08/24 00:28:30;;;;;;;0.00;0.00;;;17.30;99.90;;;;;;5033683;28;20313;-68
2023/08/24 00:30:55;;;;;;;0.20;0.20;;;17.30;99.90;;;;;;5032904;28;20112;-68
2023/08/24 00:33:21;;;;;;;1.00;0.73;;;17.40;99.90;;;;;;5022622;28;20036;-68
2023/08/24 00:35:47;;;;;;;0.90;0.40;;;17.50;99.90;;;;;;5029605;28;20399;-68
2023/08/24 00:38:13;;;;;;;0.15;0.15;;;17.50;99.90;;;;;;5032018;28;20274;-68
2023/08/24 00:40:44;;;;;;;1.13;0.80;;;17.50;99.90;;;;;;5033166;28;20056;-75
2023/08/24 00:43:10;;;;;;;0.15;0.15;;;17.50;99.90;;;;;;5031220;28;20424;-68
2023/08/24 00:45:36;;;;;;;1.38;1.00;;;17.60;99.90;;;;;;5028885;28;20036;-68
2023/08/24 00:48:03;;;;;;;0.38;0.38;;;17.70;99.90;;;;;;5032989;28;20038;-68
2023/08/24 00:50:29;;;;;;;0.10;0.10;;;17.70;99.90;;;;;;5028421;28;20040;-68
2023/08/24 00:52:55;;;;;;;0.28;0.28;;;17.60;99.90;;;;;;5027631;28;20571;-68
2023/08/24 00:55:21;;;;;;;0.40;0.40;;;17.60;99.90;;;;;;5027716;28;20037;-67
2023/08/24 00:57:48;;;;;;;0.00;0.00;;;17.70;99.90;;;;;;5030253;28;20025;-68
2023/08/24 01:00:14;;;;;;;2.28;0.65;;;17.60;99.90;;;;;;5024160;28;20329;-68
2023/08/24 01:02:40;;;;;;;2.88;0.85;;;17.60;99.90;;;;;;5024297;28;20032;-68
2023/08/24 01:05:07;;;;;;;0.10;0.10;;;17.60;99.90;;;;;;5025863;28;20038;-67
2023/08/24 01:07:38;;;;;;;0.20;0.20;;;17.60;99.90;;;;;;5031934;28;20113;-68
2023/08/24 01:10:06;;;;;;;0.13;0.13;;;17.60;99.90;;;;;;5025741;28;20120;-68
2023/08/24 01:13:02;;;;;;;0.10;0.10;;;17.70;99.90;;;;;;5034817;28;20030;-67
2023/08/24 01:15:34;;;;;;;;;;;17.70;99.90;;;;;;5027444;28;20021;-68
2023/08/24 01:18:05;;;;;;;0.10;0.10;;;17.70;99.90;;;;;;5030989;28;19905;-68
2023/08/24 01:20:34;;;;;;;0.00;0.00;;;17.70;99.90;;;;;;5049992;28;20029;-68
2023/08/24 01:23:24;;;;;;;0.30;0.30;;;17.60;99.90;;;;;;5025787;28;20029;-68
2023/08/24 01:26:03;;;;;;;0.32;0.32;;;17.60;99.90;;;;;;5043711;28;20037;-68
2023/08/24 01:28:31;;;;;;;1.17;0.15;;;17.60;99.90;;;;;;5028629;28;20360;-67
2023/08/24 01:30:57;;;;;;;0.63;0.30;;;17.50;99.90;;;;;;5032606;28;20030;-68
2023/08/24 01:33:22;;;;;;;0.83;0.63;;;17.50;99.90;;;;;;5028043;28;20075;-67
2023/08/24 01:35:48;;;;;;;2.17;0.50;;;17.60;99.90;;;;;;5025054;28;20025;-67
2023/08/24 01:38:15;;;;;;;0.52;0.52;;;17.60;99.90;;;;;;5030541;28;20155;-67
2023/08/24 01:40:57;;;;;;;0.52;0.52;;;17.50;99.90;;;;;;5028225;28;20321;-68
2023/08/24 01:43:29;;;;;;;0.82;0.82;;;17.50;99.90;;;;;;5026937;28;20030;-67
2023/08/24 01:45:57;;;;;;;0.45;0.45;;;17.50;99.90;;;;;;5025975;28;20127;-77
2023/08/24 01:48:25;;;;;;;0.80;0.63;;;17.40;99.90;;;;;;5029071;28;20160;-67
2023/08/24 01:50:52;;;;;;;0.20;0.20;;;17.40;99.90;;;;;;5031031;28;20025;-67
2023/08/24 01:53:18;;;;;;;0.30;0.20;;;17.30;99.90;;;;;;5027253;28;20405;-68
2023/08/24 01:55:46;;;;;;;2.95;0.93;;;17.30;99.90;;;;;;5027760;28;20056;-68
2023/08/24 01:58:11;;;;;;;4.45;0.93;;;17.30;99.90;;;;;;5029179;28;20348;-68
2023/08/24 02:00:38;;;;;;;0.63;0.47;;;17.30;99.90;;;;;;5033631;28;20026;-67
2023/08/24 02:03:04;;;;;;;0.40;0.40;;;17.20;99.90;;;;;;5025280;28;20322;-67
2023/08/24 02:05:29;;;;;;;2.28;0.40;;;17.10;99.90;;;;;;5038720;28;20424;-67
2023/08/24 02:07:57;;;;;;;1.03;0.90;;;17.10;99.90;;;;;;5026914;28;20094;-67
2023/08/24 02:10:22;;;;;;;3.10;0.90;;;17.10;99.90;;;;;;5032456;28;20072;-75
2023/08/24 02:12:48;;;;;;;0.47;0.47;;;17.10;99.90;;;;;;5034375;28;20344;-67
2023/08/24 02:15:14;;;;;;;1.70;0.83;;;17.10;99.90;;;;;;5033888;28;20282;-67
2023/08/24 02:17:40;;;;;;;2.33;0.73;;;17.10;99.90;;;;;;5035790;28;20022;-67
2023/08/24 02:20:08;;;;;;;0.10;0.10;;;17.10;99.90;;;;;;5035767;28;20030;-68
2023/08/24 02:22:34;;;;;;;0.68;0.68;;;17.10;99.90;;;;;;5040201;28;20026;-67
2023/08/24 02:25:02;;;;;;;0.93;0.65;;;17.10;99.90;;;;;;5031665;28;20116;-67
2023/08/24 02:27:28;;;;;;;1.00;1.00;;;17.10;99.90;;;;;;5031275;28;20387;-76
2023/08/24 02:29:54;;;;;;;0.20;0.20;;;17.10;99.90;;;;;;5024917;28;20035;-67
2023/08/24 02:32:20;;;;;;;0.30;0.30;;;17.10;99.90;;;;;;5037366;28;20030;-67
2023/08/24 02:34:45;;;;;;;0.60;0.60;;;17.20;99.90;;;;;;5033678;28;20349;-75
2023/08/24 02:37:11;;;;;;;0.43;0.43;;;17.20;99.90;;;;;;5036677;28;20036;-67
2023/08/24 02:39:37;;;;;;;0.20;0.20;;;17.20;99.90;;;;;;5036256;28;20124;-67
2023/08/24 02:42:03;;;;;;;0.30;0.30;;;17.10;99.90;;;;;;5028773;28;20037;-67
2023/08/24 02:44:28;;;;;;;0.08;0.08;;;17.10;99.90;;;;;;5032454;28;20029;-68
2023/08/24 02:46:54;;;;;;;0.47;0.47;;;17.10;99.90;;;;;;5036042;28;20033;-67
2023/08/24 02:49:20;;;;;;;1.53;1.40;;;17.10;99.90;;;;;;5031068;28;20053;-67
2023/08/24 02:51:46;;;;;;;0.00;0.00;;;17.10;99.90;;;;;;5029706;28;20030;-67
2023/08/24 02:54:12;;;;;;;0.35;0.35;;;17.10;99.90;;;;;;5031157;28;20033;-68
2023/08/24 02:56:38;;;;;;;0.23;0.23;;;17.10;99.90;;;;;;5026488;28;20302;-68
2023/08/24 02:59:04;;;;;;;0.53;0.50;;;17.10;99.90;;;;;;5028212;28;20056;-68
2023/08/24 03:01:29;;;;;;;0.30;0.30;;;17.20;99.90;;;;;;5049514;28;20464;-67
2023/08/24 03:03:55;;;;;;;0.27;0.27;;;17.20;99.90;;;;;;5033568;28;20057;-67
2023/08/24 03:06:23;;;;;;;1.50;1.23;;;17.20;99.90;;;;;;5031214;28;20029;-68
2023/08/24 03:08:49;;;;;;;0.35;0.35;;;17.10;99.90;;;;;;5029244;28;20017;-67
2023/08/24 03:11:15;;;;;;;1.53;1.43;;;17.20;99.90;;;;;;5028739;28;20108;-67
2023/08/24 03:13:40;;;;;;;0.80;0.68;;;17.20;99.90;;;;;;5031413;28;20029;-67
2023/08/24 03:16:07;;;;;;;0.33;0.33;;;17.20;99.90;;;;;;5030951;28;20034;-67
2023/08/24 03:18:33;;;;;;;0.30;0.30;;;17.20;99.90;;;;;;5036692;28;20025;-76
2023/08/24 03:20:59;;;;;;;0.80;0.53;;;17.10;99.90;;;;;;5035487;28;20107;-68
2023/08/24 03:23:25;;;;;;;0.28;0.28;;;17.10;99.90;;;;;;5035796;28;20464;-68
2023/08/24 03:25:51;;;;;;;1.95;0.85;;;17.00;99.90;;;;;;5035317;28;20034;-67
2023/08/24 03:28:17;;;;;;;0.30;0.30;;;17.00;99.90;;;;;;5035689;28;20033;-67
2023/08/24 03:30:51;;;;;;;0.97;0.63;;;17.00;99.90;;;;;;5035440;28;20029;-68
2023/08/24 03:33:17;;;;;;;0.47;0.47;;;17.00;99.90;;;;;;5035706;28;20025;-67
2023/08/24 03:35:43;;;;;;;0.37;0.37;;;16.90;99.90;;;;;;5033055;28;20363;-67
2023/08/24 03:38:09;;;;;;;1.73;0.50;;;16.90;99.90;;;;;;5036338;28;20026;-67
2023/08/24 03:40:35;;;;;;;0.10;0.10;;;16.90;99.90;;;;;;5035605;28;20462;-67
2023/08/24 03:43:02;;;;;;;0.63;0.63;;;17.00;99.90;;;;;;5036223;28;20033;-67
2023/08/24 03:45:28;;;;;;;0.57;0.38;;;17.00;99.90;;;;;;5030534;28;20036;-67
2023/08/24 03:47:54;;;;;;;1.07;0.83;;;17.00;99.90;;;;;;5032243;28;20042;-67
2023/08/24 03:50:22;;;;;;;0.60;0.60;;;17.00;99.90;;;;;;5025082;28;20033;-68
2023/08/24 03:52:54;;;;;;;1.13;0.80;;;17.00;99.90;;;;;;5033414;28;20030;-68
2023/08/24 03:55:20;;;;;;;0.17;0.17;;;17.00;99.90;;;;;;5030063;28;20425;-68
2023/08/24 03:57:45;;;;;;;1.55;0.98;;;17.00;99.90;;;;;;5034197;28;20045;-67
2023/08/24 04:00:12;;;;;;;0.37;0.37;;;16.90;99.90;;;;;;5029395;28;20030;-76
2023/08/24 04:02:38;;;;;;;0.30;0.30;;;16.90;99.90;;;;;;5028878;28;20080;-68
2023/08/24 04:05:04;;;;;;;0.80;0.80;;;16.90;99.90;;;;;;5030929;28;20088;-68
2023/08/24 04:07:31;;;;;;;0.43;0.40;;;16.90;99.90;;;;;;5032443;28;20035;-68
2023/08/24 04:09:57;;;;;;;0.88;0.47;;;16.90;99.90;;;;;;5032599;28;20029;-68
2023/08/24 04:12:22;;;;;;;0.20;0.20;;;16.90;99.90;;;;;;5036583;28;20025;-68
2023/08/24 04:14:49;;;;;;;0.87;0.87;;;16.90;99.90;;;;;;5027192;28;20087;-68
2023/08/24 04:17:14;;;;;;;0.77;0.70;;;16.90;99.90;;;;;;5034614;28;20444;-76
2023/08/24 04:19:40;;;;;;;10.57;1.40;;;16.90;99.90;;;;;;5038764;28;20029;-68
2023/08/24 04:22:06;;;;;;;0.40;0.40;;;16.90;99.90;;;;;;5032687;28;20334;-67
2023/08/24 04:24:32;;;;;;;0.20;0.20;;;16.90;99.90;;;;;;5027020;28;20052;-68
2023/08/24 04:26:58;;;;;;;0.07;0.07;;;16.80;99.90;;;;;;5025863;28;20029;-68
2023/08/24 04:29:23;;;;;;;0.60;0.60;;;16.80;99.90;;;;;;5037501;28;20021;-68
2023/08/24 04:31:49;;;;;;;1.37;1.13;;;16.80;99.90;;;;;;5031366;28;20025;-67
2023/08/24 04:34:15;;;;;;;0.77;0.47;;;16.80;99.90;;;;;;5034331;28;20420;-68
2023/08/24 04:36:40;;;;;;;0.73;0.73;;;16.80;99.90;;;;;;5030865;28;20048;-68
2023/08/24 04:39:06;;;;;;;0.13;0.13;;;16.70;99.90;;;;;;5023944;28;20072;-68
2023/08/24 04:41:32;;;;;;;1.13;1.13;;;16.70;99.90;;;;;;5034985;28;20417;-68
2023/08/24 04:43:58;;;;;;;0.17;0.17;;;16.70;99.90;;;;;;5032564;28;20091;-68
2023/08/24 04:46:23;;;;;;;1.37;1.10;;;16.80;99.90;;;;;;5034990;28;20703;-68
2023/08/24 04:48:49;;;;;;;0.20;0.20;;;16.80;99.90;;;;;;5034095;28;20041;-68
2023/08/24 04:51:15;;;;;;;0.30;0.30;;;16.80;99.90;;;;;;5034985;28;20041;-67
2023/08/24 04:53:41;;;;;;;0.30;0.30;;;16.80;99.90;;;;;;5031442;28;20413;-68
2023/08/24 04:56:06;;;;;;;0.20;0.20;;;16.80;99.90;;;;;;5034575;28;20325;-68
2023/08/24 04:58:34;;;;;;;0.63;0.63;;;16.80;99.90;;;;;;5026291;28;20030;-68
2023/08/24 05:00:59;;;;;;;0.57;0.57;;;16.80;99.90;;;;;;5033367;28;20335;-76
2023/08/24 05:03:26;;;;;;;0.53;0.53;;;16.80;99.90;;;;;;5035900;28;20029;-68
2023/08/24 05:05:52;;;;;;;0.52;0.52;;;16.70;99.90;;;;;;5028671;28;20064;-68
2023/08/24 05:08:17;;;;;;;5.87;1.47;;;16.80;99.90;;;;;;5029548;28;20422;-68
2023/08/24 05:10:44;;;;;;;0.60;0.60;;;16.70;99.90;;;;;;5028349;28;20282;-67
2023/08/24 05:13:10;;;;;;;0.35;0.35;;;16.80;99.90;;;;;;5024230;28;20021;-68
2023/08/24 05:15:36;;;;;;;0.67;0.67;;;16.80;99.90;;;;;;5016260;28;20048;-69
2023/08/24 05:18:01;;;;;;;1.03;0.70;;;16.80;99.90;;;;;;5026396;28;20021;-76
2023/08/24 05:20:27;;;;;;;0.33;0.33;;;16.80;99.90;;;;;;5029445;28;20669;-68
2023/08/24 05:22:54;;;;;;;0.20;0.20;;;16.90;99.90;;;;;;5027060;28;20557;-68
2023/08/24 05:25:22;;;;;;;0.20;0.20;;;17.00;99.90;;;;;;5022533;28;20080;-68
2023/08/24 05:27:48;;;;;;;1.33;0.75;;;17.00;99.90;;;;;;5026571;28;20317;-68
2023/08/24 05:30:14;;;;;;;1.23;1.13;;;17.00;99.90;;;;;;5026999;28;20018;-68
2023/08/24 05:32:39;;;;;;;0.20;0.20;;;17.00;99.90;;;;;;5024437;28;20511;-68
2023/08/24 05:35:07;;;;;;;0.30;0.30;;;17.10;99.90;;;;;;5026478;28;20030;-69
2023/08/24 05:37:33;;;;;;;0.88;0.88;;;17.00;99.90;;;;;;5025730;28;20116;-68
2023/08/24 05:40:00;;;;;;;0.60;0.60;;;17.10;99.90;;;;;;5027554;28;20041;-67
2023/08/24 05:42:26;;;;;;;3.63;0.85;;;17.20;99.90;;;;;;5021446;28;20494;-69
2023/08/24 05:44:52;;;;;;;1.23;0.50;;;17.20;99.90;;;;;;5031456;28;20420;-68
2023/08/24 05:47:17;;;;;;;1.50;0.87;;;17.30;99.90;;;;;;5031145;28;20041;-68
2023/08/24 05:49:43;;;;;;;0.70;0.43;;;17.30;99.90;;;;;;5031680;28;20343;-78
2023/08/24 05:52:09;;;;;;;0.70;0.70;;;17.30;99.90;;;;;;5036258;28;20022;-68
2023/08/24 05:54:38;;;;;;;0.70;0.57;;;17.40;99.90;;;;;;5032384;28;20037;-68
2023/08/24 05:57:05;;;;;;;0.55;0.50;;;17.50;99.90;;;;;;5032706;28;20090;-68
2023/08/24 05:59:33;;;;;;;0.40;0.40;;;17.50;99.90;;;;;;5029470;28;20376;-68
2023/08/24 06:01:59;;;;;;;0.55;0.55;;;17.60;99.90;;;;;;5047496;28;20033;-68
2023/08/24 06:04:25;;;;;;;0.55;0.55;;;17.60;99.90;;;;;;5030655;28;20030;-68
2023/08/24 06:06:51;;;;;;;1.70;1.60;;;17.70;99.90;;;;;;5031673;28;20042;-68
2023/08/24 06:09:17;;;;;;;0.47;0.47;;;17.70;99.90;;;;;;5034329;28;20025;-76
2023/08/24 06:11:43;;;;;;;0.73;0.73;;;17.80;99.90;;;;;;5032741;28;20421;-68
2023/08/24 06:14:09;;;;;;;1.80;1.43;;;17.80;99.90;;;;;;5034733;28;20258;-68
2023/08/24 06:16:34;;;;;;;1.20;0.60;;;17.90;99.90;;;;;;5030836;28;20282;-68
2023/08/24 06:19:00;;;;;;;1.00;1.00;;;18.00;99.90;;;;;;5034017;28;20167;-68
2023/08/24 06:21:27;;;;;;;0.37;0.37;;;18.00;99.90;;;;;;5030624;28;20449;-68
2023/08/24 06:23:53;;;;;;;;;;;18.00;99.90;;;;;;5040881;28;20109;-68
2023/08/24 06:26:18;;;;;;;0.40;0.40;;;18.10;99.90;;;;;;5049777;28;20007;-68
2023/08/24 06:28:47;;;;;;;0.63;0.63;;;18.10;99.90;;;;;;5054792;28;20119;-68
2023/08/24 06:31:14;;;;;;;7.10;0.95;;;18.10;99.90;;;;;;5046582;28;20048;-68
2023/08/24 06:33:40;;;;;;;;;;;18.20;99.90;;;;;;5050840;28;20024;-68
2023/08/24 06:36:07;;;;;;;0.52;0.38;;;18.30;99.90;;;;;;5051792;28;19913;-69
2023/08/24 06:38:34;;;;;;;0.50;0.50;;;18.40;99.90;;;;;;5050282;28;20039;-68
2023/08/24 06:41:00;;;;;;;0.45;0.45;;;18.50;99.90;;;;;;5057125;28;20416;-69
2023/08/24 06:43:26;;;;;;;0.17;0.17;;;18.60;99.90;;;;;;5058290;28;20032;-76
2023/08/24 06:45:54;;;;;;;;;;;18.60;99.90;;;;;;5050047;28;20321;-69
2023/08/24 06:48:20;;;;;;;1.10;1.10;;;18.70;99.90;;;;;;5057774;28;19986;-78
2023/08/24 06:50:46;;;;;;;2.92;0.95;;;18.70;99.90;;;;;;5046880;28;20297;-68
2023/08/24 06:53:12;;;;;;;0.35;0.20;;;18.80;99.90;;;;;;5051894;28;20325;-68
2023/08/24 06:55:38;;;;;;;0.15;0.15;;;18.90;99.90;;;;;;5051190;28;20100;-69
2023/08/24 06:58:06;;;;;;;0.45;0.45;;;18.90;99.90;;;;;;5052228;28;20035;-68
2023/08/24 07:00:33;;;;;;;0.35;0.35;;;18.90;99.90;;;;;;5050213;28;20060;-75
2023/08/24 07:02:59;;;;;;;1.33;0.68;;;18.90;99.90;;;;;;5055650;28;20037;-68
2023/08/24 07:05:25;;;;;;;1.25;1.02;;;19.00;99.90;;;;;;5046799;28;20482;-68
2023/08/24 07:07:53;;;;;;;0.20;0.20;;;19.10;99.90;;;;;;5052994;28;20480;-68
2023/08/24 07:10:20;;;;;;;8.10;1.15;;;19.20;99.90;;;;;;5042929;28;20117;-69
2023/08/24 07:12:46;;;;;;;0.93;0.90;;;19.20;99.90;;;;;;5038797;28;20029;-68
2023/08/24 07:15:12;;;;;;;0.77;0.77;;;19.30;99.90;;;;;;5036428;28;20058;-68
2023/08/24 07:17:39;;;;;;;0.47;0.47;;;19.40;99.90;;;;;;5038864;28;20025;-69
2023/08/24 07:20:06;;;;;;;1.65;0.77;;;19.40;99.90;;;;;;5044916;28;20450;-68
2023/08/24 07:22:32;;;;;;;1.17;0.50;;;19.40;99.90;;;;;;5030159;28;20029;-68
2023/08/24 07:25:00;;;;;;;0.80;0.80;;;19.50;99.90;;;;;;5036476;28;20025;-68
2023/08/24 07:27:25;;;;;;;0.80;0.50;;;19.50;99.90;;;;;;5024835;28;20042;-68
2023/08/24 07:29:51;;;;;;;0.87;0.73;;;19.60;99.90;;;;;;5055076;28;20436;-68
2023/08/24 07:32:17;;;;;;;0.33;0.33;;;19.60;99.90;;;;;;5031389;28;20022;-68
2023/08/24 07:34:43;;;;;;;0.50;0.40;;;19.70;99.90;;;;;;5037899;28;20290;-77
2023/08/24 07:37:09;;;;;;;0.10;0.10;;;19.80;99.90;;;;;;5037470;28;20316;-69
2023/08/24 07:39:35;;;;;;;0.40;0.40;;;19.90;99.90;;;;;;5035229;28;20021;-68
2023/08/24 07:42:01;;;;;;;0.47;0.47;;;20.00;99.90;;;;;;5035371;28;20026;-68
2023/08/24 07:44:27;;;;;;;1.57;0.90;;;20.10;99.90;;;;;;5036006;28;20380;-68
2023/08/24 07:46:52;;;;;;;0.30;0.30;;;20.10;99.90;;;;;;5035621;28;20029;-68
2023/08/24 07:49:18;;;;;;;0.80;0.80;;;20.20;99.90;;;;;;5034887;28;20033;-68
2023/08/24 07:51:44;;;;;;;0.60;0.60;;;20.20;99.90;;;;;;5036167;28;20022;-76
2023/08/24 07:54:10;;;;;;;0.30;0.30;;;20.20;99.90;;;;;;5034467;28;20026;-68
2023/08/24 07:56:36;;;;;;;0.30;0.30;;;20.30;99.90;;;;;;5036156;28;20047;-68
2023/08/24 07:59:02;;;;;;;1.95;1.25;;;20.40;99.90;;;;;;5034576;28;20327;-68
2023/08/24 08:01:28;;;;;;;0.95;0.82;;;20.50;99.90;;;;;;5035747;28;20112;-69
2023/08/24 08:03:54;;;;;;;0.27;0.27;;;20.70;99.90;;;;;;5034249;28;20116;-68
2023/08/24 08:06:21;;;;;;;0.33;0.33;;;20.80;99.90;;;;;;5035393;28;20060;-68
2023/08/24 08:08:50;;;;;;;0.40;0.40;;;20.90;99.90;;;;;;5034655;28;20034;-68
2023/08/24 08:11:16;;;;;;;0.20;0.20;;;20.90;99.90;;;;;;5033641;28;20021;-68
2023/08/24 08:13:41;;;;;;;0.30;0.30;;;21.10;99.90;;;;;;5035138;28;20030;-68
2023/08/24 08:16:07;;;;;;;0.45;0.45;;;21.30;99.90;;;;;;5033619;28;20028;-68
2023/08/24 08:18:34;;;;;;;1.55;0.90;;;21.50;99.90;;;;;;5029473;28;20060;-68
2023/08/24 08:21:01;;;;;;;0.50;0.50;;;21.80;99.90;;;;;;5030213;28;20104;-68
2023/08/24 08:23:28;;;;;;;0.20;0.20;;;21.80;99.90;;;;;;5027152;28;20044;-68
2023/08/24 08:25:53;;;;;;;0.20;0.20;;;21.90;99.90;;;;;;5025016;28;20412;-68
2023/08/24 08:28:19;;;;;;;0.30;0.30;;;21.90;99.90;;;;;;5030846;28;20025;-68
2023/08/24 08:30:47;;;;;;;0.30;0.30;;;21.90;99.90;;;;;;5032823;28;20040;-68
2023/08/24 08:33:13;;;;;;;0.80;0.80;;;22.00;99.90;;;;;;5030816;28;20091;-68
2023/08/24 08:35:40;;;;;;;2.63;1.27;;;22.00;99.90;;;;;;5046296;28;20372;-68
2023/08/24 08:38:07;;;;;;;1.05;1.05;;;22.10;99.90;;;;;;5028770;28;20336;-68
2023/08/24 08:40:37;;;;;;;2.60;0.93;;;22.10;99.90;;;;;;5031256;28;20103;-68
2023/08/24 08:43:03;;;;;;;0.43;0.43;;;22.00;99.90;;;;;;5036394;28;20059;-76
2023/08/24 08:45:29;;;;;;;0.73;0.70;;;22.10;99.90;;;;;;5032153;28;20029;-68
2023/08/24 08:48:00;;;;;;;0.60;0.60;;;22.00;99.90;;;;;;5031994;28;20073;-68
2023/08/24 08:50:27;;;;;;;0.75;0.75;;;22.00;99.90;;;;;;5027074;28;20360;-74
2023/08/24 08:52:53;;;;;;;;;;;22.00;99.90;;;;;;5042014;28;20024;-68
2023/08/24 08:55:19;;;;;;;0.75;0.75;;;22.00;99.90;;;;;;5026387;28;19909;-68
2023/08/24 08:57:49;;;;;;;0.40;0.40;;;22.00;99.90;;;;;;5042374;28;20025;-73
2023/08/24 09:00:19;;;;;;;0.47;0.47;;;22.10;99.90;;;;;;5033296;28;20036;-77
2023/08/24 09:02:46;;;;;;;0.25;0.25;;;22.00;99.90;;;;;;5040312;28;20049;-68
2023/08/24 09:05:13;;;;;;;14.80;0.93;;;22.00;99.90;;;;;;5032033;28;20087;-68
2023/08/24 09:07:42;;;;;;;1.08;1.00;;;22.10;99.90;;;;;;5034410;28;20044;-69
2023/08/24 09:10:08;;;;;;;15.45;1.08;;;22.00;99.90;;;;;;5032407;28;20068;-74
2023/08/24 09:12:34;;;;;;;0.70;0.70;;;22.10;99.90;;;;;;5037829;28;20021;-68
2023/08/24 09:15:04;;;;;;;9.43;2.58;;;22.10;99.90;;;;;;5041513;28;20059;-75
2023/08/24 09:17:29;;;;;;;0.60;0.43;;;22.20;99.90;;;;;;5035336;28;20021;-68
2023/08/24 09:19:59;;;;;;;0.98;0.98;;;22.20;99.90;;;;;;5036919;28;20456;-72
2023/08/24 09:22:24;;;;;;;0.45;0.45;;;22.30;99.90;;;;;;5031956;28;20117;-68
2023/08/24 09:24:50;;;;;;;1.13;1.02;;;22.40;99.90;;;;;;5037053;28;20059;-75
2023/08/24 09:27:18;;;;;;;2.53;0.90;;;22.40;99.90;;;;;;5034129;28;21438;-69
2023/08/24 09:29:53;;;;;;;1.40;1.30;;;22.50;99.90;;;;;;5034513;28;20478;-70
2023/08/24 09:32:28;;;;;;;0.47;0.47;;;22.50;99.90;;;;;;5032448;28;20075;-68
2023/08/24 09:34:55;;;;;;;0.40;0.40;;;22.40;99.90;;;;;;5028032;28;20033;-76
2023/08/24 09:37:20;;;;;;;;;;;22.40;99.90;;;;;;5045819;28;20021;-77
2023/08/24 09:39:47;;;;;;;0.40;0.40;;;22.40;99.90;;;;;;5047126;28;19909;-68
2023/08/24 09:42:13;;;;;;;2.80;0.40;;;22.30;99.90;;;;;;5051836;28;20025;-68
2023/08/24 09:44:45;;;;;;;;;;;22.30;99.90;;;;;;5052791;28;20407;-68
2023/08/24 09:47:11;;;;;;;1.02;1.00;;;22.30;99.90;;;;;;5048162;28;19978;-68
2023/08/24 09:49:38;;;;;;;1.65;0.63;;;22.20;99.90;;;;;;5049698;28;20096;-68
2023/08/24 09:52:08;;;;;;;0.20;0.20;;;22.20;99.90;;;;;;5051715;28;20416;-68
2023/08/24 09:54:38;;;;;;;0.57;0.52;;;22.20;99.90;;;;;;5035986;28;20029;-68
2023/08/24 09:57:09;;;;;;;2.50;1.38;;;22.20;99.90;;;;;;5047961;28;20031;-68
2023/08/24 09:59:39;;;;;;;0.60;0.60;;;22.20;99.90;;;;;;5043617;28;20332;-68
2023/08/24 10:02:17;;;;;;;0.43;0.43;;;22.20;99.90;;;;;;5049698;28;20415;-75
2023/08/24 10:04:45;;;;;;;0.40;0.40;;;22.30;99.90;;;;;;5046859;28;20040;-68
2023/08/24 10:07:15;;;;;;;1.00;0.90;;;22.30;99.90;;;;;;5045221;28;20029;-68
2023/08/24 10:09:56;;;;;;;0.38;0.38;;;22.30;99.90;;;;;;5047993;28;20056;-68
2023/08/24 10:12:28;;;;;;;0.32;0.32;;;22.30;99.90;;;;;;5042445;28;20021;-74
2023/08/24 10:15:06;;;;;;;0.68;0.68;;;22.20;99.90;;;;;;5047019;28;20121;-75
2023/08/24 10:17:36;;;;;;;0.30;0.30;;;22.20;99.90;;;;;;5048204;28;20017;-68
2023/08/24 10:20:05;;;;;;;0.60;0.60;;;22.20;99.90;;;;;;5049048;28;20021;-68
2023/08/24 10:22:34;;;;;;;0.35;0.35;;;22.20;99.90;;;;;;5049061;28;20021;-75
2023/08/24 10:25:00;;;;;;;0.38;0.35;;;22.20;99.90;;;;;;5050673;28;20028;-75
2023/08/24 10:27:32;;;;;;;0.52;0.52;;;22.10;99.90;;;;;;5046908;28;20378;-68
2023/08/24 10:30:01;;;;;;;0.70;0.70;;;22.10;99.90;;;;;;5039536;28;20061;-68
2023/08/24 10:32:27;;;;;;;0.75;0.75;;;22.10;99.90;;;;;;5046517;28;20021;-68
2023/08/24 10:34:53;;;;;;;0.45;0.45;;;22.20;99.90;;;;;;5034986;28;20021;-75
2023/08/24 10:37:28;;;;;;;0.32;0.32;;;22.10;99.90;;;;;;5045831;28;20025;-68
2023/08/24 10:39:54;;;;;;;0.28;0.28;;;22.10;99.90;;;;;;5050246;28;20025;-68
2023/08/24 10:42:23;;;;;;;1.08;0.70;;;22.10;99.90;;;;;;5045181;28;20025;-68
2023/08/24 10:44:51;;;;;;;0.63;0.60;;;22.20;99.90;;;;;;5029700;28;20024;-68
2023/08/24 10:47:28;;;;;;;0.35;0.35;;;22.20;99.90;;;;;;5038088;28;20412;-68
2023/08/24 10:49:56;;;;;;;4.15;2.03;;;22.30;99.90;;;;;;5041314;28;20053;-68
2023/08/24 10:52:23;;;;;;;1.35;0.90;;;22.30;99.90;;;;;;5037844;28;20025;-76
2023/08/24 10:54:51;;;;;;;0.15;0.13;;;22.30;99.90;;;;;;5033508;28;20060;-68
2023/08/24 10:57:24;;;;;;;0.60;0.60;;;22.20;99.90;;;;;;5029174;28;20026;-68
2023/08/24 11:00:06;;;;;;;0.20;0.20;;;22.20;99.90;;;;;;5028028;28;20018;-68
2023/08/24 11:02:59;;;;;;;1.70;0.73;;;22.30;99.90;;;;;;5036005;28;20071;-68
2023/08/24 11:05:32;;;;;;;0.98;0.77;;;22.30;99.90;;;;;;5030921;28;20045;-68
2023/08/24 11:08:02;;;;;;;1.05;0.65;;;22.30;99.90;;;;;;5037679;28;20036;-68
2023/08/24 11:10:50;;;;;;;1.55;1.45;;;22.30;99.90;;;;;;5041133;28;20409;-68
2023/08/24 11:13:19;;;;;;;0.60;0.60;;;22.30;99.90;;;;;;5027322;28;20423;-68
2023/08/24 11:15:47;;;;;;;0.80;0.80;;;22.40;99.90;;;;;;5034496;28;20316;-68
2023/08/24 11:18:21;;;;;;;1.75;1.13;;;22.50;99.90;;;;;;5041830;28;20116;-68
2023/08/24 11:20:51;;;;;;;1.65;1.50;;;22.50;99.90;;;;;;5039131;28;20048;-68
2023/08/24 11:23:18;;;;;;;3.08;1.85;;;22.60;99.90;;;;;;5049173;28;20029;-76
2023/08/24 11:25:45;;;;;;;0.80;0.80;;;22.70;99.90;;;;;;5039471;28;20025;-69
2023/08/24 11:28:16;;;;;;;0.80;0.80;;;22.80;99.90;;;;;;5037510;28;20067;-69
2023/08/24 11:30:43;;;;;;;0.95;0.95;;;22.80;99.90;;;;;;5042492;28;20029;-68
2023/08/24 11:33:09;;;;;;;1.58;1.48;;;22.50;99.90;;;;;;5050289;28;20021;-68
2023/08/24 11:35:42;;;;;;;1.40;1.35;;;22.30;99.90;;;;;;5043932;28;20113;-68
2023/08/24 11:38:08;;;;;;;5.35;2.03;;;22.10;99.90;;;;;;5050673;28;20029;-68
2023/08/24 11:40:34;;;;;;;0.77;0.77;;;21.90;99.90;;;;;;5041495;28;20063;-85
2023/08/24 11:43:00;;;;;;;1.63;1.50;;;21.70;99.90;;;;;;5055094;28;20116;-68
2023/08/24 11:45:40;;;;;;;0.97;0.97;;;21.50;99.90;;;;;;5049760;28;20124;-69
2023/08/24 11:48:07;;;;;;;1.13;1.13;;;21.40;99.90;;;;;;5061131;28;20045;-69
2023/08/24 11:50:36;;;;;;;1.70;1.60;;;21.40;99.90;;;;;;5039592;28;20345;-69
2023/08/24 11:53:02;;;;;;;7.57;1.65;;;21.30;99.90;;;;;;5049610;28;20092;-68
2023/08/24 11:55:28;;;;;;;1.30;1.20;;;21.30;99.90;;;;;;5042680;28;20026;-76
2023/08/24 11:57:55;;;;;;;1.90;1.63;;;21.30;99.90;;;;;;5052913;28;20067;-68
2023/08/24 12:00:21;;;;;;;3.08;2.42;;;21.30;99.90;;;;;;5040197;28;20269;-68
2023/08/24 12:02:48;;;;;;;0.45;0.45;;;21.40;99.90;;;;;;5051787;28;20424;-68
2023/08/24 12:05:21;;;;;;;;;;;21.40;99.90;;;;;;5041505;28;20029;-69
2023/08/24 12:07:47;;;;;;;4.07;1.75;;;21.40;99.90;;;;;;5044047;28;19908;-68
2023/08/24 12:10:13;;;;;;;3.78;1.60;;;21.50;99.90;;;;;;5038086;28;20021;-68
2023/08/24 12:12:38;;;;;;;1.85;1.02;;;21.50;99.90;;;;;;5047379;28;20034;-69
2023/08/24 12:15:05;;;;;;;1.15;1.05;;;21.50;99.90;;;;;;5042228;28;20025;-68
2023/08/24 12:17:43;;;;;;;1.02;1.00;;;21.60;99.90;;;;;;5040199;28;20041;-68
2023/08/24 12:20:21;;;;;;;1.20;1.10;;;21.60;99.90;;;;;;5053450;28;20022;-68
2023/08/24 12:22:54;;;;;;;3.28;1.83;;;21.70;99.90;;;;;;5043497;28;20025;-68
2023/08/24 12:25:24;;;;;;;1.48;1.23;;;21.70;99.90;;;;;;5039429;28;20033;-76
2023/08/24 12:28:13;;;;;;;2.08;1.35;;;21.80;99.90;;;;;;5038515;28;20025;-69
2023/08/24 12:30:52;;;;;;;9.82;2.47;;;21.90;99.90;;;;;;5037671;28;20034;-68
2023/08/24 12:33:22;;;;;;;1.02;0.88;;;21.90;99.90;;;;;;5037720;28;20018;-68
2023/08/24 12:35:49;;;;;;;2.20;1.48;;;22.00;99.90;;;;;;5034827;28;20325;-68
2023/08/24 12:38:14;;;;;;;3.65;0.93;;;22.00;99.90;;;;;;5037123;28;20048;-68
2023/08/24 12:40:40;;;;;;;1.90;1.67;;;22.00;99.90;;;;;;5034479;28;20029;-68
2023/08/24 12:43:06;;;;;;;1.98;0.90;;;22.00;99.90;;;;;;5035068;28;20044;-68
2023/08/24 12:45:32;;;;;;;0.83;0.83;;;21.90;99.90;;;;;;5034890;28;20053;-68
2023/08/24 12:47:58;;;;;;;5.57;2.15;;;21.90;99.90;;;;;;5035679;28;20282;-69
2023/08/24 12:50:24;;;;;;;0.80;0.80;;;21.90;99.90;;;;;;5032370;28;20025;-68